EBOS/OST METAR and TAF weather

Enter ICAO airport designator
Station Type Date Time Source
EBOS METAR 2021/04/14 20:20 UTC NOAA

EBOS 142020Z 04011KT 9999 FEW025 05/00 Q1032 NOSIG


Station Type Date Time Source
EBOS Decoded METAR 2021/04/14 20:20 UTC NOAA

Oostende Airport , Belgium (EBOS) 51-12N 002-52E 5M
Apr 14, 2021 - 04:20 PM EDT / 2021.04.14 2020 UTC
Wind: from the NE (040 degrees) at 13 MPH (11 KT):0
Visibility: greater than 7 mile(s):0
Sky conditions: mostly clear
Temperature: 41 F (5 C)
Dew Point: 32 F (0 C)
Relative Humidity: 70%
Pressure (altimeter): 30.47 in. Hg (1032 hPa)
ob: EBOS 142020Z 04011KT 9999 FEW025 05/00 Q1032 NOSIG
cycle: 20

Station Type Date Time Source
EBOS TAF 2021/04/14 18:27 UTC NOAA

TAF EBOS 141710Z 1418/1524 03009KT CAVOK PROB40
TEMPO 1505/1509 3000 SHRA SHRAGS

Example: see airport list